createdAt,value
2018-07-03T00:02:23.881Z,0.70
2018-07-03T00:04:51.338Z,0.90
2018-07-03T00:07:19.599Z,0.80
2018-07-03T00:09:47.047Z,0.63
2018-07-03T00:12:14.502Z,0.80
2018-07-03T00:14:41.982Z,0.87
2018-07-03T00:17:09.437Z,0.90
2018-07-03T00:19:36.903Z,0.60
2018-07-03T00:22:04.369Z,0.77
2018-07-03T00:24:31.936Z,0.73
2018-07-03T00:26:59.389Z,1.00
2018-07-03T00:29:26.853Z,0.80
2018-07-03T00:31:54.311Z,1.03
2018-07-03T00:34:21.779Z,0.83
2018-07-03T00:36:49.249Z,0.97
2018-07-03T00:39:16.704Z,1.13
2018-07-03T00:41:44.276Z,1.10
2018-07-03T00:44:12.505Z,0.80
2018-07-03T00:46:39.972Z,1.00
2018-07-03T00:49:07.433Z,0.80
2018-07-03T00:51:34.926Z,0.93
2018-07-03T00:54:02.398Z,1.00
2018-07-03T00:56:29.872Z,0.70
2018-07-03T00:58:57.346Z,0.90
2018-07-03T01:01:26.327Z,0.80
2018-07-03T01:03:53.790Z,0.90
2018-07-03T01:06:21.244Z,0.67
2018-07-03T01:08:49.335Z,1.03
2018-07-03T01:11:16.786Z,0.90
2018-07-03T01:13:44.341Z,1.00
2018-07-03T01:16:11.813Z,1.30
2018-07-03T01:18:40.773Z,0.80
2018-07-03T01:21:08.239Z,1.20
2018-07-03T01:23:35.709Z,0.87
2018-07-03T01:26:03.163Z,1.03
2018-07-03T01:28:30.651Z,0.90
2018-07-03T01:30:58.119Z,1.03
2018-07-03T01:33:27.119Z,0.90
2018-07-03T01:35:54.576Z,1.20
2018-07-03T01:38:22.032Z,0.80
2018-07-03T01:40:49.501Z,0.90
2018-07-03T01:43:18.454Z,1.20
2018-07-03T01:45:45.924Z,1.10
2018-07-03T01:48:13.403Z,1.50
2018-07-03T01:50:40.982Z,1.50
2018-07-03T01:53:08.430Z,1.23
2018-07-03T01:55:35.894Z,1.00
2018-07-03T01:58:03.352Z,1.30
2018-07-03T02:00:30.919Z,0.90
2018-07-03T02:02:58.377Z,1.00
2018-07-03T02:05:25.831Z,1.37
2018-07-03T02:07:53.317Z,0.80
2018-07-03T02:10:20.770Z,1.30
2018-07-03T02:12:48.252Z,1.10
2018-07-03T02:15:15.712Z,1.50
2018-07-03T02:17:44.687Z,1.30
2018-07-03T02:20:12.139Z,1.70
2018-07-03T02:22:39.608Z,1.00
2018-07-03T02:25:07.064Z,1.50
2018-07-03T02:27:34.536Z,1.30
2018-07-03T02:30:02.010Z,1.00
2018-07-03T02:32:29.466Z,1.20
2018-07-03T02:34:56.934Z,1.30
2018-07-03T02:37:24.508Z,1.20
2018-07-03T02:39:51.974Z,1.20
2018-07-03T02:42:19.424Z,1.60
2018-07-03T02:44:48.400Z,1.47
2018-07-03T02:47:15.857Z,1.30
2018-07-03T02:49:43.327Z,1.30
2018-07-03T02:52:10.793Z,1.40
2018-07-03T02:54:38.266Z,1.60
2018-07-03T02:57:05.730Z,1.37
2018-07-03T02:59:33.182Z,1.73
2018-07-03T03:02:00.763Z,1.50
2018-07-03T03:04:29.396Z,1.00
2018-07-03T03:06:56.854Z,2.20
2018-07-03T03:09:24.312Z,1.60
2018-07-03T03:11:51.814Z,1.97
2018-07-03T03:14:19.281Z,2.20
2018-07-03T03:16:46.892Z,2.27
2018-07-03T03:19:15.218Z,2.00
2018-07-03T03:21:42.679Z,1.57
2018-07-03T03:24:10.135Z,1.40
2018-07-03T03:26:37.714Z,1.73
2018-07-03T03:29:05.279Z,1.30
2018-07-03T03:31:32.730Z,1.33
2018-07-03T03:34:00.203Z,1.50
2018-07-03T03:36:27.660Z,2.07
2018-07-03T03:38:55.116Z,1.53
2018-07-03T03:41:22.568Z,2.53
2018-07-03T03:43:50.035Z,2.07
2018-07-03T03:46:17.479Z,1.63
2018-07-03T03:48:44.943Z,1.50
2018-07-03T03:51:12.444Z,2.33
2018-07-03T03:53:40.003Z,1.80
2018-07-03T03:56:07.450Z,1.97
2018-07-03T03:58:34.922Z,1.63
2018-07-03T04:01:02.486Z,1.87
2018-07-03T04:03:30.050Z,2.60
2018-07-03T04:05:57.530Z,1.97
2018-07-03T04:08:24.981Z,1.40
2018-07-03T04:10:52.436Z,1.67
2018-07-03T04:13:20.015Z,1.50
2018-07-03T04:15:47.463Z,1.73
2018-07-03T04:18:14.935Z,1.53
2018-07-03T04:20:42.396Z,1.57
2018-07-03T04:23:09.859Z,1.60
2018-07-03T04:25:37.326Z,2.20
2018-07-03T04:28:04.823Z,2.30
2018-07-03T04:30:32.291Z,1.70
2018-07-03T04:32:59.802Z,1.70
2018-07-03T04:35:27.259Z,1.63
2018-07-03T04:37:54.712Z,2.03
2018-07-03T04:40:22.167Z,1.87
2018-07-03T04:42:49.639Z,1.40
2018-07-03T04:45:17.105Z,1.33
2018-07-03T04:47:44.555Z,2.07
2018-07-03T04:50:12.041Z,1.33
2018-07-03T04:52:40.259Z,1.70
2018-07-03T04:55:07.734Z,1.47
2018-07-03T04:57:35.199Z,1.83
2018-07-03T05:00:03.167Z,1.90
2018-07-03T05:02:30.634Z,1.47
2018-07-03T05:04:58.084Z,1.63
2018-07-03T05:07:25.542Z,2.10
2018-07-03T05:09:53.012Z,2.37
2018-07-03T05:12:20.528Z,1.92
2018-07-03T05:14:47.992Z,1.40
2018-07-03T05:17:16.982Z,1.70
2018-07-03T05:19:44.535Z,1.80
2018-07-03T05:22:12.008Z,1.50
2018-07-03T05:24:39.493Z,1.70
2018-07-03T05:27:06.935Z,1.63
2018-07-03T05:29:34.417Z,1.90
2018-07-03T05:32:02.671Z,2.00
2018-07-03T05:34:30.141Z,1.80
2018-07-03T05:36:58.058Z,1.93
2018-07-03T05:39:25.556Z,2.13
2018-07-03T05:41:53.036Z,2.10
2018-07-03T05:44:20.503Z,1.93
2018-07-03T05:46:48.056Z,2.17
2018-07-03T05:49:15.617Z,2.37
2018-07-03T05:51:43.186Z,1.80
2018-07-03T05:54:10.917Z,1.90
2018-07-03T05:56:38.371Z,2.43
2018-07-03T05:59:06.593Z,1.60
2018-07-03T06:01:34.172Z,1.70
2018-07-03T06:04:02.411Z,2.67
2018-07-03T06:06:29.870Z,1.50
2018-07-03T06:08:57.354Z,2.53
2018-07-03T06:11:24.923Z,2.27
2018-07-03T06:13:52.371Z,1.80
2018-07-03T06:16:19.947Z,1.53
2018-07-03T06:18:47.402Z,2.43
2018-07-03T06:21:14.877Z,1.97
2018-07-03T06:23:42.349Z,1.40
2018-07-03T06:26:09.796Z,1.63
2018-07-03T06:28:37.271Z,1.50
2018-07-03T06:31:04.730Z,2.13
2018-07-03T06:33:32.184Z,1.97
2018-07-03T06:35:59.661Z,2.00
2018-07-03T06:38:28.716Z,1.40
2018-07-03T06:40:56.187Z,1.47
2018-07-03T06:43:23.717Z,1.60
2018-07-03T06:45:51.132Z,1.63
2018-07-03T06:48:18.695Z,1.80
2018-07-03T06:50:46.162Z,1.67
2018-07-03T06:53:13.603Z,1.40
2018-07-03T06:55:41.299Z,1.50
2018-07-03T06:58:08.803Z,1.50
2018-07-03T07:00:36.260Z,1.33
2018-07-03T07:03:03.729Z,1.30
2018-07-03T07:05:31.183Z,1.20
2018-07-03T07:07:58.689Z,1.20
2018-07-03T07:10:26.262Z,0.93
2018-07-03T07:12:53.703Z,1.00
2018-07-03T07:15:21.175Z,1.00
2018-07-03T07:17:48.627Z,1.00
2018-07-03T07:20:16.095Z,1.40
2018-07-03T07:22:43.538Z,0.97
2018-07-03T07:25:11.013Z,1.10
2018-07-03T07:27:38.498Z,1.37
2018-07-03T07:30:05.974Z,0.83
2018-07-03T07:32:34.038Z,1.00
2018-07-03T07:35:01.502Z,1.00
2018-07-03T07:37:29.061Z,1.00
2018-07-03T07:39:56.524Z,1.03
2018-07-03T07:42:23.990Z,0.80
2018-07-03T07:44:51.447Z,1.00
2018-07-03T07:47:18.915Z,0.90
2018-07-03T07:49:46.383Z,0.80
2018-07-03T07:52:13.935Z,0.90
2018-07-03T07:54:41.396Z,0.90
2018-07-03T07:57:08.851Z,0.80
2018-07-03T07:59:36.413Z,0.80
2018-07-03T08:02:03.863Z,0.60
2018-07-03T08:04:31.331Z,0.77
2018-07-03T08:06:58.800Z,0.83
2018-07-03T08:09:26.269Z,0.90
2018-07-03T08:11:53.718Z,0.90
2018-07-03T08:14:21.289Z,0.80
2018-07-03T08:16:48.738Z,1.00
2018-07-03T08:19:16.284Z,0.90
2018-07-03T08:21:43.678Z,0.80
2018-07-03T08:24:11.148Z,0.73
2018-07-03T08:26:38.642Z,0.80
2018-07-03T08:29:06.168Z,0.90
2018-07-03T08:31:33.724Z,0.70
2018-07-03T08:34:01.257Z,0.80
2018-07-03T08:36:28.657Z,0.80
2018-07-03T08:38:56.218Z,0.50
2018-07-03T08:41:23.780Z,0.83
2018-07-03T08:43:51.227Z,0.93
2018-07-03T08:46:18.803Z,0.83
2018-07-03T08:48:46.252Z,0.97
2018-07-03T08:51:13.740Z,0.80
2018-07-03T08:53:41.193Z,0.80
2018-07-03T08:56:08.658Z,0.70
2018-07-03T08:58:36.222Z,0.60
2018-07-03T09:01:03.669Z,0.73
2018-07-03T09:03:31.243Z,0.70
2018-07-03T09:05:58.802Z,0.80
2018-07-03T09:08:26.289Z,0.60
2018-07-03T09:10:53.731Z,0.70
2018-07-03T09:13:21.197Z,0.70
2018-07-03T09:15:48.673Z,0.77
2018-07-03T09:18:16.152Z,0.70
2018-07-03T09:20:45.099Z,0.80
2018-07-03T09:23:12.548Z,0.63
2018-07-03T09:25:40.011Z,0.70
2018-07-03T09:28:07.761Z,0.60
2018-07-03T09:30:35.319Z,0.60
2018-07-03T09:33:02.755Z,0.60
2018-07-03T09:35:30.988Z,0.70
2018-07-03T09:37:58.442Z,0.63
2018-07-03T09:40:25.908Z,0.70
2018-07-03T09:42:53.403Z,0.70
2018-07-03T09:45:20.871Z,0.80
2018-07-03T09:47:49.853Z,0.70
2018-07-03T09:50:17.434Z,0.90
2018-07-03T09:52:44.894Z,0.73
2018-07-03T09:55:12.362Z,0.77
2018-07-03T09:57:41.496Z,0.63
2018-07-03T10:00:08.904Z,0.70
2018-07-03T10:02:36.394Z,0.70
2018-07-03T10:05:04.635Z,0.67
2018-07-03T10:07:32.120Z,0.57
2018-07-03T10:09:59.576Z,0.70
2018-07-03T10:12:27.132Z,1.00
2018-07-03T10:14:54.592Z,0.60
2018-07-03T10:17:22.061Z,0.50
2018-07-03T10:19:49.519Z,0.70
2018-07-03T10:22:16.999Z,0.90
2018-07-03T10:24:45.960Z,0.83
2018-07-03T10:27:13.430Z,0.80
2018-07-03T10:29:40.891Z,0.60
2018-07-03T10:32:08.348Z,0.77
2018-07-03T10:34:35.817Z,0.80
2018-07-03T10:37:03.292Z,1.00
2018-07-03T10:39:30.850Z,0.70
2018-07-03T10:41:58.333Z,0.90
2018-07-03T10:44:25.794Z,0.63
2018-07-03T10:46:53.612Z,0.70
2018-07-03T10:49:21.118Z,0.80
2018-07-03T10:51:48.571Z,0.67
2018-07-03T10:54:16.034Z,0.70
2018-07-03T10:56:43.499Z,0.90
2018-07-03T10:59:11.075Z,1.03
2018-07-03T11:01:40.046Z,0.80
2018-07-03T11:04:07.520Z,0.90
2018-07-03T11:06:34.978Z,0.77
2018-07-03T11:09:02.440Z,0.70
2018-07-03T11:11:29.916Z,0.77
2018-07-03T11:13:57.444Z,1.00
2018-07-03T11:16:24.837Z,0.80
2018-07-03T11:18:52.409Z,1.13
2018-07-03T11:21:19.860Z,0.80
2018-07-03T11:23:48.678Z,1.07
2018-07-03T11:26:16.900Z,0.77
2018-07-03T11:28:44.396Z,1.20
2018-07-03T11:31:11.955Z,1.10
2018-07-03T11:33:39.455Z,0.87
2018-07-03T11:36:06.895Z,0.87
2018-07-03T11:38:34.359Z,1.07
2018-07-03T11:41:02.629Z,1.10
2018-07-03T11:43:30.107Z,1.00
2018-07-03T11:45:57.551Z,0.97
2018-07-03T11:48:25.125Z,0.80
2018-07-03T11:50:52.584Z,0.90
2018-07-03T11:53:21.634Z,1.00
2018-07-03T11:55:49.096Z,0.90
2018-07-03T11:58:16.561Z,0.80
2018-07-03T12:00:44.028Z,0.73
2018-07-03T12:03:11.531Z,1.20
2018-07-03T12:05:39.763Z,0.90
2018-07-03T12:08:07.233Z,0.70
2018-07-03T12:10:34.697Z,0.90
2018-07-03T12:13:02.157Z,1.00
2018-07-03T12:15:29.616Z,0.83
2018-07-03T12:17:57.080Z,1.20
2018-07-03T12:20:24.638Z,0.80
2018-07-03T12:22:52.102Z,1.10
2018-07-03T12:25:19.551Z,1.00
2018-07-03T12:27:47.039Z,0.97
2018-07-03T12:30:14.491Z,1.00
2018-07-03T12:32:42.088Z,0.80
2018-07-03T12:35:09.552Z,0.70
2018-07-03T12:37:37.011Z,0.90
2018-07-03T12:40:04.464Z,0.77
2018-07-03T12:42:32.618Z,1.03
2018-07-03T12:45:00.074Z,0.77
2018-07-03T12:47:27.523Z,0.97
2018-07-03T12:49:55.973Z,1.10
2018-07-03T12:52:23.535Z,1.07
2018-07-03T12:54:51.761Z,0.90
2018-07-03T12:57:19.228Z,0.80
2018-07-03T12:59:46.679Z,1.37
2018-07-03T13:02:14.151Z,1.00
2018-07-03T13:04:42.370Z,0.83
2018-07-03T13:07:09.846Z,0.87
2018-07-03T13:09:38.814Z,0.80
2018-07-03T13:12:06.291Z,1.10
2018-07-03T13:14:33.847Z,1.10
2018-07-03T13:17:01.300Z,1.10
2018-07-03T13:19:28.939Z,1.03
2018-07-03T13:21:56.391Z,1.10
2018-07-03T13:24:23.860Z,1.10
2018-07-03T13:26:51.324Z,1.10
2018-07-03T13:29:18.784Z,1.00
2018-07-03T13:31:46.260Z,1.00
2018-07-03T13:34:13.747Z,1.07
2018-07-03T13:36:41.223Z,1.00
2018-07-03T13:39:08.787Z,1.10
2018-07-03T13:41:36.247Z,0.90
2018-07-03T13:44:03.815Z,0.97
2018-07-03T13:46:31.381Z,0.77
2018-07-03T13:48:58.830Z,1.00
2018-07-03T13:51:26.413Z,1.17
2018-07-03T13:53:53.876Z,1.00
2018-07-03T13:56:21.328Z,1.10
2018-07-03T13:58:48.784Z,0.83
2018-07-03T14:01:16.360Z,1.13
2018-07-03T14:03:45.047Z,1.40
2018-07-03T14:06:12.500Z,1.17
2018-07-03T14:08:39.967Z,1.20
2018-07-03T14:11:07.532Z,1.20
2018-07-03T14:13:35.000Z,1.17
2018-07-03T14:16:02.560Z,1.00
2018-07-03T14:18:30.028Z,1.00
2018-07-03T14:20:57.489Z,1.47
2018-07-03T14:23:25.719Z,1.23
2018-07-03T14:25:53.197Z,1.00
2018-07-03T14:28:20.653Z,1.10
2018-07-03T14:30:48.115Z,1.30
2018-07-03T14:33:15.579Z,1.03
2018-07-03T14:35:43.045Z,1.17
2018-07-03T14:38:11.112Z,1.30
2018-07-03T14:40:38.563Z,1.10
2018-07-03T14:43:06.076Z,1.00
2018-07-03T14:45:33.546Z,1.10
2018-07-03T14:48:02.555Z,0.97
2018-07-03T14:50:30.796Z,1.13
2018-07-03T14:52:58.264Z,1.00
2018-07-03T14:55:25.712Z,1.10
2018-07-03T14:57:53.209Z,1.13
2018-07-03T15:00:20.663Z,0.90
2018-07-03T15:02:48.135Z,1.20
2018-07-03T15:05:17.082Z,1.10
2018-07-03T15:07:44.585Z,1.00
2018-07-03T15:10:12.144Z,1.20
2018-07-03T15:12:39.618Z,1.30
2018-07-03T15:15:07.175Z,1.13
2018-07-03T15:17:34.633Z,1.10
2018-07-03T15:20:02.102Z,1.17
2018-07-03T15:22:29.567Z,1.20
2018-07-03T15:24:57.019Z,1.10
2018-07-03T15:27:24.587Z,1.20
2018-07-03T15:29:52.155Z,1.30
2018-07-03T15:32:19.610Z,1.00
2018-07-03T15:34:47.083Z,1.30
2018-07-03T15:37:14.637Z,1.20
2018-07-03T15:39:42.114Z,0.90
2018-07-03T15:42:09.647Z,1.03
2018-07-03T15:47:35.687Z,1.10
2018-07-03T15:50:03.160Z,1.00
2018-07-03T15:52:30.624Z,1.20
2018-07-03T15:54:59.224Z,0.93
2018-07-03T15:57:26.774Z,1.30
2018-07-03T15:59:54.251Z,1.20
2018-07-03T16:02:22.740Z,1.00
2018-07-03T16:04:50.187Z,0.97
2018-07-03T16:07:17.749Z,1.00
2018-07-03T16:09:45.216Z,1.03
2018-07-03T16:12:12.696Z,1.10
2018-07-03T16:14:40.132Z,0.97
2018-07-03T16:17:07.707Z,0.93
2018-07-03T16:19:35.178Z,1.00
2018-07-03T16:22:02.719Z,1.10
2018-07-03T16:24:30.174Z,0.97
2018-07-03T16:26:57.623Z,1.00
2018-07-03T16:29:25.112Z,1.00
2018-07-03T16:31:52.564Z,1.10
2018-07-03T16:34:20.155Z,1.37
2018-07-03T16:36:47.618Z,1.63
2018-07-03T16:39:15.173Z,1.10
2018-07-03T16:41:42.739Z,1.30
2018-07-03T16:44:10.191Z,0.93
2018-07-03T16:46:37.671Z,1.10
2018-07-03T16:49:05.231Z,1.10
2018-07-03T16:51:34.204Z,1.20
2018-07-03T16:54:01.667Z,0.90
2018-07-03T16:56:29.144Z,1.10
2018-07-03T16:58:56.600Z,0.80
2018-07-03T17:01:24.176Z,0.97
2018-07-03T17:03:51.647Z,1.37
2018-07-03T17:06:19.932Z,0.87
2018-07-03T17:08:47.389Z,1.07
2018-07-03T17:11:14.851Z,1.10
2018-07-03T17:13:42.314Z,1.07
2018-07-03T17:16:10.576Z,0.90
2018-07-03T17:18:38.055Z,1.23
2018-07-03T17:21:06.089Z,1.00
2018-07-03T17:23:33.580Z,1.13
2018-07-03T17:26:01.047Z,1.30
2018-07-03T17:28:28.529Z,1.30
2018-07-03T17:30:55.985Z,1.13
2018-07-03T17:33:24.305Z,1.10
2018-07-03T17:35:51.771Z,1.23
2018-07-03T17:38:19.279Z,1.20
2018-07-03T17:41:14.302Z,1.13
2018-07-03T17:43:42.531Z,1.27
2018-07-03T17:46:10.021Z,1.20
2018-07-03T17:48:37.475Z,1.63
2018-07-03T17:51:04.927Z,1.33
2018-07-03T17:53:32.398Z,1.10
2018-07-03T17:55:59.864Z,1.10
2018-07-03T17:58:28.951Z,1.30
2018-07-03T18:00:56.408Z,1.10
2018-07-03T18:03:25.019Z,1.30
2018-07-03T18:05:52.493Z,0.97
2018-07-03T18:08:20.741Z,1.17
2018-07-03T18:10:48.208Z,1.10
2018-07-03T18:13:17.180Z,1.10
2018-07-03T18:15:44.646Z,1.20
2018-07-03T18:18:12.133Z,1.40
2018-07-03T18:20:40.360Z,1.10
2018-07-03T18:23:07.867Z,1.13
2018-07-03T18:25:35.425Z,1.10
2018-07-03T18:28:02.886Z,1.10
2018-07-03T18:30:30.360Z,1.20
2018-07-03T18:32:58.615Z,0.97
2018-07-03T18:35:26.082Z,1.43
2018-07-03T18:37:53.549Z,1.27
2018-07-03T18:40:21.027Z,1.10
2018-07-03T18:42:48.456Z,1.40
2018-07-03T18:45:16.312Z,1.30
2018-07-03T18:47:43.782Z,1.27
2018-07-03T18:50:11.227Z,1.20
2018-07-03T18:52:38.714Z,1.60
2018-07-03T18:55:06.163Z,1.30
2018-07-03T18:57:33.698Z,1.30
2018-07-03T19:00:01.935Z,1.67
2018-07-03T19:02:29.448Z,1.17
2018-07-03T19:04:57.791Z,1.20
2018-07-03T19:07:25.310Z,1.60
2018-07-03T19:09:52.853Z,1.37
2018-07-03T19:12:21.103Z,1.37
2018-07-03T19:14:48.556Z,1.17
2018-07-03T19:17:16.029Z,1.60
2018-07-03T19:19:44.995Z,1.40
2018-07-03T19:22:12.475Z,1.20
2018-07-03T19:24:39.964Z,1.63
2018-07-03T19:27:07.513Z,1.50
2018-07-03T19:29:34.977Z,1.30
2018-07-03T19:32:03.950Z,1.30
2018-07-03T19:34:31.417Z,1.27
2018-07-03T19:36:59.049Z,1.33
2018-07-03T19:39:26.533Z,1.40
2018-07-03T19:41:54.077Z,1.37
2018-07-03T19:44:21.591Z,1.17
2018-07-03T19:46:49.836Z,1.27
2018-07-03T19:49:17.301Z,1.50
2018-07-03T19:51:44.767Z,1.00
2018-07-03T19:54:12.258Z,1.10
2018-07-03T19:56:39.729Z,1.50
2018-07-03T19:59:07.305Z,1.20
2018-07-03T20:01:35.536Z,0.97
2018-07-03T20:04:04.884Z,1.43
2018-07-03T20:06:32.424Z,1.40
2018-07-03T20:08:59.864Z,1.37
2018-07-03T20:11:27.349Z,1.53
2018-07-03T20:13:54.933Z,1.33
2018-07-03T20:16:22.396Z,1.50
2018-07-03T20:18:49.910Z,1.40
2018-07-03T20:21:17.308Z,1.20
2018-07-03T20:23:46.279Z,1.67
2018-07-03T20:26:13.758Z,1.20
2018-07-03T20:28:41.228Z,1.50
2018-07-03T20:31:09.468Z,1.20
2018-07-03T20:33:36.933Z,1.67
2018-07-03T20:36:04.404Z,1.30
2018-07-03T20:38:31.871Z,1.50
2018-07-03T20:40:59.439Z,1.30
2018-07-03T20:43:26.907Z,1.40
2018-07-03T20:45:54.373Z,1.40
2018-07-03T20:48:21.849Z,1.47
2018-07-03T20:50:50.059Z,1.40
2018-07-03T20:53:17.535Z,1.57
2018-07-03T20:55:45.016Z,1.23
2018-07-03T20:58:12.499Z,1.70
2018-07-03T21:00:40.070Z,1.40
2018-07-03T21:03:09.046Z,1.53
2018-07-03T21:05:36.519Z,1.53
2018-07-03T21:08:03.971Z,1.40
2018-07-03T21:10:31.485Z,1.33
2018-07-03T21:12:58.918Z,1.40
2018-07-03T21:15:27.931Z,1.47
2018-07-03T21:17:56.246Z,1.30
2018-07-03T21:20:23.750Z,1.47
2018-07-03T21:22:51.284Z,1.50
2018-07-03T21:25:18.745Z,1.33
2018-07-03T21:27:46.243Z,1.40
2018-07-03T21:30:13.811Z,1.63
2018-07-03T21:32:42.785Z,1.50
2018-07-03T21:35:10.247Z,1.50
2018-07-03T21:37:37.711Z,1.37
2018-07-03T21:40:05.398Z,1.50
2018-07-03T21:42:32.855Z,1.20
2018-07-03T21:45:01.093Z,1.50
2018-07-03T21:47:28.548Z,1.70
2018-07-03T21:49:56.008Z,1.67
2018-07-03T21:52:23.482Z,1.50
2018-07-03T21:54:50.993Z,1.43
2018-07-03T21:57:19.257Z,1.70
2018-07-03T21:59:46.993Z,1.57
2018-07-03T22:02:14.548Z,1.63
2018-07-03T22:04:42.003Z,1.40
2018-07-03T22:07:09.520Z,1.57
2018-07-03T22:09:38.524Z,1.30
2018-07-03T22:12:06.082Z,2.13
2018-07-03T22:14:33.649Z,1.67
2018-07-03T22:17:01.889Z,1.97
2018-07-03T22:19:29.350Z,1.43
2018-07-03T22:21:56.864Z,1.33
2018-07-03T22:24:24.313Z,1.70
2018-07-03T22:26:51.777Z,1.90
2018-07-03T22:29:20.043Z,1.20
2018-07-03T22:31:47.517Z,1.60
2018-07-03T22:34:15.742Z,1.97
2018-07-03T22:36:43.206Z,1.60
2018-07-03T22:39:10.671Z,1.40
2018-07-03T22:41:38.130Z,1.70
2018-07-03T22:44:05.597Z,1.67
2018-07-03T22:46:33.051Z,1.40
2018-07-03T22:49:00.521Z,1.90
2018-07-03T22:51:27.972Z,1.40
2018-07-03T22:53:55.440Z,1.80
2018-07-03T22:56:22.911Z,1.80
2018-07-03T22:58:50.596Z,1.50
2018-07-03T23:01:18.183Z,2.07
2018-07-03T23:03:45.647Z,1.83
2018-07-03T23:06:14.622Z,1.80
2018-07-03T23:08:42.078Z,1.77
2018-07-03T23:11:09.535Z,1.60
2018-07-03T23:13:37.020Z,1.77
2018-07-03T23:16:04.584Z,1.67
2018-07-03T23:18:32.599Z,1.67
2018-07-03T23:21:00.820Z,1.80
2018-07-03T23:23:28.311Z,1.43
2018-07-03T23:25:55.772Z,1.83
2018-07-03T23:28:23.999Z,1.40
2018-07-03T23:30:51.456Z,1.70
2018-07-03T23:33:18.925Z,2.00
2018-07-03T23:35:46.392Z,1.70
2018-07-03T23:38:13.897Z,1.63
2018-07-03T23:40:41.494Z,1.43
2018-07-03T23:43:09.024Z,1.50
2018-07-03T23:45:36.487Z,1.60
2018-07-03T23:48:15.626Z,1.50
2018-07-03T23:50:55.258Z,1.40
2018-07-03T23:53:34.494Z,1.37
2018-07-03T23:56:14.007Z,1.43
2018-07-03T23:58:53.463Z,1.80
